Melrose, MA (02176)

1:07 PM EST on January 26, 2015 (GMT -0500)
East Side Melrose | Change Station
CLOSE
Current Station
Personal Weather Station
Location: Melrose, MA
Elevation: 115 ft
Nearby Weather Stations
Active Advisory: Blizzard Warning

Elev 115 ft 42.46 °N, 71.05 °W | Updated 15 seconds ago

Overcast
Overcast
26.7 °F
Feels Like 27 °F
N
2.2
Wind Variable Wind from NE
Gusts 4.6 mph

Today
High -- | Low -- °F
--% Chance of Precip.
Yesterday
High -- | Low -- °F
Precip. -- in
7:03 AM 4:50 PM
Waxing Crescent, 45% visible
Pressure 30.06 in
Visibility 2.5 miles
Clouds Mostly Cloudy 1900 ft
Overcast 2600 ft
Windchill 27 °F
Dew Point 17 °F
Humidity 66%
Rainfall 0.00 in
Snow Depth Not available.
UV 1 out of 12
Pollen .10 out of 12
Air Quality Not available.
Flu Activity Not available.
METAR KBOS 261754Z 05016KT 2 1/2SM -SN BKN019 OVC026 M04/M07 A3007 RMK AO2 SLP180 P0000 60000 T10391072 11039 21117 56023

More Conditions Fewer Conditions

Pressure 30.06 in
Visibility 2.5 miles
Clouds Mostly Cloudy 1900 ft
Overcast 2600 ft
Windchill 27 °F
Dew Point 17 °F
Humidity 66%
Rainfall 0.00 in
Snow Depth Not available.
UV 1 out of 12
Pollen .10 out of 12
Air Quality Not available.
Flu Activity Not available.
METAR KBOS 261754Z 05016KT 2 1/2SM -SN BKN019 OVC026 M04/M07 A3007 RMK AO2 SLP180 P0000 60000 T10391072 11039 21117 56023

More Conditions Fewer Conditions

10-Day Weather Forecast

Almanac

Astronomy

Jan. 26, 2015 Rise Set
Actual Time
Civil Twilight
Nautical Twilight
Astronomical Twilight
Moon
Length of Visible Light
Length of Day
Tomorrow will be .
, % of the Moon is Illuminated

Today's Extremes

State Highs State Lows

Community

WunderPhotos

Upload Photos

1,790,304 photos uploaded!

WunderBlogs® & News

Nearby

Air Quality

  Air Quality AQ Index Pollutant
Not available.

Snow Depth

Station Depth Elevation

Earthquake Activity

City Distance Mag. Time & Date
Minimum magnitude displayed is 2.5.

Coastal Water Temperatures

Place Temperature

Nearby Weather Stations